Himawari 2 — JG5636 — position and weather

sailwx.info

Track history (hours):
 
Tides and Currents Weather Stations Pressure Air Temp Water Temp Dewpoint Dewpoint Depression Visibility Wind Speed Wind Dir Waves Ship Positions

Himawari 2

Last reported at 2014-Sep-17 20:18 UTC. Time now 2014-Sep-19 01:55 UTC.
Position N 35°41' E 140°57'.

Length 161 m; draft 6.5 m.

Type: Cargo ship. MMSI: 431100957.

Date/timePositionNaut miles runAvg speedWind from/ knotsBaromVisibWave heightAir tempDewpointWater temp
2014-Sep-17 20:18N 35°41' E 140°57'1517.3
2014-Sep-17 19:26N 35°28' E 140°47'1617.2
2014-Sep-17 18:30N 35°15' E 140°36'1818.3
2014-Sep-17 17:31N 35°02' E 140°21'1918.9
2014-Sep-17 16:32N 34°53' E 140°02'1515.9
2014-Sep-17 15:33N 34°56' E 139°43'1717.5
2014-Sep-17 14:34N 35°14' E 139°46'1313.5
2014-Sep-17 13:33N 35°27' E 139°47'1110.8
2014-Sep-17 12:34N 35°38' E 139°50'0 0.0
2014-Sep-17 11:31N 35°38' E 139°50'0 0.0
2014-Sep-17 10:28N 35°38' E 139°50'0 0.0
2014-Sep-17 09:28N 35°38' E 139°50'0 0.0
2014-Sep-17 08:28N 35°38' E 139°50'0 0.0
2014-Sep-17 07:31N 35°38' E 139°50'0 0.0
2014-Sep-17 06:31N 35°38' E 139°50'0 0.0
2014-Sep-17 05:31N 35°38' E 139°50'0 0.0
2014-Sep-17 04:28N 35°38' E 139°50'0 0.0
2014-Sep-17 03:22N 35°38' E 139°50'0 0.0
2014-Sep-17 02:25N 35°38' E 139°50'0 0.0
2014-Sep-17 01:28N 35°38' E 139°50'0 0.0
2014-Sep-17 00:31N 35°38' E 139°50'0 0.4
2014-Sep-16 23:33N 35°37' E 139°49'1414.1
2014-Sep-16 22:33N 35°24' E 139°46'1212.1
2014-Sep-16 21:33N 35°12' E 139°47'2219.1
2014-Sep-16 20:26N 34°55' E 139°30'7216.9
2014-Sep-16 16:08N 34°16' E 138°16'16417.2
2014-Sep-16 06:33N 34°03' E 134°58'2221.7
2014-Sep-16 05:33N 34°25' E 134°60'1110.9
2014-Sep-16 04:32N 34°34' E 134°52'4 0.3
2014-Sep-15 17:33N 34°34' E 134°48'1515.4
2014-Sep-15 16:33N 34°36' E 135°06'1514.6
2014-Sep-15 15:33N 34°38' E 135°24'1 1.2
2014-Sep-15 14:31N 34°40' E 135°24'0 0.0
2014-Sep-15 13:31N 34°40' E 135°24'0 0.0
2014-Sep-15 12:31N 34°40' E 135°24'0 0.0
2014-Sep-15 11:31N 34°40' E 135°24'0 0.0
2014-Sep-15 10:31N 34°40' E 135°24'0 0.0
2014-Sep-15 09:31N 34°40' E 135°24'0 0.0
2014-Sep-15 08:19N 34°40' E 135°24'0 0.0
2014-Sep-15 07:31N 34°40' E 135°24'0 0.0
2014-Sep-15 06:31N 34°40' E 135°24'0 0.0
2014-Sep-15 05:31N 34°40' E 135°24'0 0.0
2014-Sep-15 04:33N 34°40' E 135°24'1010.2
2014-Sep-15 03:33N 34°33' E 135°15'1817.7
2014-Sep-15 02:33N 34°20' E 135°01'1717.4
2014-Sep-15 01:33N 34°02' E 135°00'23814.8
2014-Sep-14 09:32N 35°04' E 139°39'1414.6
2014-Sep-14 08:33N 35°17' E 139°45'1514.6
2014-Sep-14 07:33N 35°31' E 139°51'7 7.1
2014-Sep-14 06:32N 35°38' E 139°50'0 0.0
2014-Sep-14 05:32N 35°38' E 139°50'0 0.0
2014-Sep-14 04:32N 35°38' E 139°50'0 0.0
2014-Sep-14 03:32N 35°38' E 139°50'0 0.0
2014-Sep-14 02:33N 35°38' E 139°50'1111.2
2014-Sep-14 01:33N 35°27' E 139°49'35 8.8
2014-Sep-13 21:33N 35°09' E 140°26'2323.3
2014-Sep-13 20:34N 35°27' E 140°45'2323.2
2014-Sep-13 19:34N 35°47' E 140°59'2424.2
2014-Sep-13 18:33N 36°11' E 141°04'2524.5
2014-Sep-13 17:33N 36°35' E 141°09'  
2014-Sep-10 20:16N 35°50' E 140°60'1418.1
2014-Sep-10 19:29N 35°36' E 140°55'1718.0
2014-Sep-10 18:33N 35°23' E 140°43'1918.7
2014-Sep-10 17:33N 35°08' E 140°29'2019.7
2014-Sep-10 16:32N 34°57' E 140°09'1817.5
2014-Sep-10 15:32N 34°51' E 139°48'1515.1
2014-Sep-10 14:33N 35°05' E 139°44'1413.9
2014-Sep-10 13:33N 35°19' E 139°43'1716.6
2014-Sep-10 12:34N 35°34' E 139°51'4 3.5
2014-Sep-10 11:32N 35°38' E 139°50'0 0.0
2014-Sep-10 10:32N 35°38' E 139°50'0 0.0
2014-Sep-10 09:32N 35°38' E 139°50'0 0.0
2014-Sep-10 08:32N 35°38' E 139°50'0 0.0
2014-Sep-10 07:32N 35°38' E 139°50'0 0.0
2014-Sep-10 06:32N 35°38' E 139°50'0 0.0
2014-Sep-10 05:32N 35°38' E 139°50'0 0.0
2014-Sep-10 04:32N 35°38' E 139°50'0 0.0
2014-Sep-10 03:32N 35°38' E 139°50'0 0.0
2014-Sep-10 02:26N 35°38' E 139°50'0 0.0
2014-Sep-10 01:26N 35°38' E 139°50'0 0.0
2014-Sep-10 00:33N 35°38' E 139°50'4 4.4
2014-Sep-09 23:33N 35°34' E 139°52'1111.5
2014-Sep-09 22:33N 35°24' E 139°46'1111.1
2014-Sep-09 21:33N 35°13' E 139°47'1616.3
2014-Sep-09 20:34N 34°59' E 139°35'21619.1
2014-Sep-09 09:16N 33°24' E 135°41'5018.5
2014-Sep-09 06:34N 33°60' E 134°58'2423.2
2014-Sep-09 05:32N 34°24' E 134°60'1312.6
2014-Sep-09 04:31N 34°34' E 134°50'1 0.1
2014-Sep-08 17:33N 34°34' E 134°49'1413.6
2014-Sep-08 16:33N 34°36' E 135°05'1514.9
2014-Sep-08 15:33N 34°38' E 135°23'2 1.5
2014-Sep-08 14:27N 34°40' E 135°24'0 0.0
2014-Sep-08 13:27N 34°40' E 135°24'0 0.0
2014-Sep-08 12:33N 34°40' E 135°24'0 0.0
2014-Sep-08 11:33N 34°40' E 135°24'0 0.0
2014-Sep-08 10:33N 34°40' E 135°24'0 0.0
2014-Sep-08 09:27N 34°40' E 135°24'0 0.0
2014-Sep-08 08:33N 34°40' E 135°24'0 0.0
2014-Sep-08 07:33N 34°40' E 135°24'0 0.0
2014-Sep-08 06:33N 34°40' E 135°24'0 0.0
2014-Sep-08 05:21N 34°40' E 135°24'0 0.0
2014-Sep-08 04:33N 34°40' E 135°24'1413.5
2014-Sep-08 03:33N 34°30' E 135°13'1918.5
2014-Sep-08 02:33N 34°15' E 134°59'1817.8
2014-Sep-08 01:34N 33°57' E 134°59'  
Track history (hours):
 
Tides and Currents Weather Stations Pressure Air Temp Water Temp Dewpoint Dewpoint Depression Visibility Wind Speed Wind Dir Waves Ship Positions

Himawari 2

Last reported at 2014-Sep-17 20:18 UTC. Time now 2014-Sep-19 01:55 UTC.
Position N 35°41' E 140°57'.

Length 161 m; draft 6.5 m.

Type: Cargo ship. MMSI: 431100957.

Date/timePositionNaut miles runAvg speedWind from/ knotsBaromVisibWave heightAir tempDewpointWater temp
2014-Sep-17 20:18N 35°41' E 140°57'1517.3
2014-Sep-17 19:26N 35°28' E 140°47'1617.2
2014-Sep-17 18:30N 35°15' E 140°36'1818.3
2014-Sep-17 17:31N 35°02' E 140°21'1918.9
2014-Sep-17 16:32N 34°53' E 140°02'1515.9
2014-Sep-17 15:33N 34°56' E 139°43'1717.5
2014-Sep-17 14:34N 35°14' E 139°46'1313.5
2014-Sep-17 13:33N 35°27' E 139°47'1110.8
2014-Sep-17 12:34N 35°38' E 139°50'0 0.0
2014-Sep-17 11:31N 35°38' E 139°50'0 0.0
2014-Sep-17 10:28N 35°38' E 139°50'0 0.0
2014-Sep-17 09:28N 35°38' E 139°50'0 0.0
2014-Sep-17 08:28N 35°38' E 139°50'0 0.0
2014-Sep-17 07:31N 35°38' E 139°50'0 0.0
2014-Sep-17 06:31N 35°38' E 139°50'0 0.0
2014-Sep-17 05:31N 35°38' E 139°50'0 0.0
2014-Sep-17 04:28N 35°38' E 139°50'0 0.0
2014-Sep-17 03:22N 35°38' E 139°50'0 0.0
2014-Sep-17 02:25N 35°38' E 139°50'0 0.0
2014-Sep-17 01:28N 35°38' E 139°50'0 0.0
2014-Sep-17 00:31N 35°38' E 139°50'0 0.4
2014-Sep-16 23:33N 35°37' E 139°49'1414.1
2014-Sep-16 22:33N 35°24' E 139°46'1212.1
2014-Sep-16 21:33N 35°12' E 139°47'2219.1
2014-Sep-16 20:26N 34°55' E 139°30'7216.9
2014-Sep-16 16:08N 34°16' E 138°16'16417.2
2014-Sep-16 06:33N 34°03' E 134°58'2221.7
2014-Sep-16 05:33N 34°25' E 134°60'1110.9
2014-Sep-16 04:32N 34°34' E 134°52'4 0.3
2014-Sep-15 17:33N 34°34' E 134°48'1515.4
2014-Sep-15 16:33N 34°36' E 135°06'1514.6
2014-Sep-15 15:33N 34°38' E 135°24'1 1.2
2014-Sep-15 14:31N 34°40' E 135°24'0 0.0
2014-Sep-15 13:31N 34°40' E 135°24'0 0.0
2014-Sep-15 12:31N 34°40' E 135°24'0 0.0
2014-Sep-15 11:31N 34°40' E 135°24'0 0.0
2014-Sep-15 10:31N 34°40' E 135°24'0 0.0
2014-Sep-15 09:31N 34°40' E 135°24'0 0.0
2014-Sep-15 08:19N 34°40' E 135°24'0 0.0
2014-Sep-15 07:31N 34°40' E 135°24'0 0.0
2014-Sep-15 06:31N 34°40' E 135°24'0 0.0
2014-Sep-15 05:31N 34°40' E 135°24'0 0.0
2014-Sep-15 04:33N 34°40' E 135°24'1010.2
2014-Sep-15 03:33N 34°33' E 135°15'1817.7
2014-Sep-15 02:33N 34°20' E 135°01'1717.4
2014-Sep-15 01:33N 34°02' E 135°00'23814.8
2014-Sep-14 09:32N 35°04' E 139°39'1414.6
2014-Sep-14 08:33N 35°17' E 139°45'1514.6
2014-Sep-14 07:33N 35°31' E 139°51'7 7.1
2014-Sep-14 06:32N 35°38' E 139°50'0 0.0
2014-Sep-14 05:32N 35°38' E 139°50'0 0.0
2014-Sep-14 04:32N 35°38' E 139°50'0 0.0
2014-Sep-14 03:32N 35°38' E 139°50'0 0.0
2014-Sep-14 02:33N 35°38' E 139°50'1111.2
2014-Sep-14 01:33N 35°27' E 139°49'35 8.8
2014-Sep-13 21:33N 35°09' E 140°26'2323.3
2014-Sep-13 20:34N 35°27' E 140°45'2323.2
2014-Sep-13 19:34N 35°47' E 140°59'2424.2
2014-Sep-13 18:33N 36°11' E 141°04'2524.5
2014-Sep-13 17:33N 36°35' E 141°09'  
2014-Sep-10 20:16N 35°50' E 140°60'1418.1
2014-Sep-10 19:29N 35°36' E 140°55'1718.0
2014-Sep-10 18:33N 35°23' E 140°43'1918.7
2014-Sep-10 17:33N 35°08' E 140°29'2019.7
2014-Sep-10 16:32N 34°57' E 140°09'1817.5
2014-Sep-10 15:32N 34°51' E 139°48'1515.1
2014-Sep-10 14:33N 35°05' E 139°44'1413.9
2014-Sep-10 13:33N 35°19' E 139°43'1716.6
2014-Sep-10 12:34N 35°34' E 139°51'4 3.5
2014-Sep-10 11:32N 35°38' E 139°50'0 0.0
2014-Sep-10 10:32N 35°38' E 139°50'0 0.0
2014-Sep-10 09:32N 35°38' E 139°50'0 0.0
2014-Sep-10 08:32N 35°38' E 139°50'0 0.0
2014-Sep-10 07:32N 35°38' E 139°50'0 0.0
2014-Sep-10 06:32N 35°38' E 139°50'0 0.0
2014-Sep-10 05:32N 35°38' E 139°50'0 0.0
2014-Sep-10 04:32N 35°38' E 139°50'0 0.0
2014-Sep-10 03:32N 35°38' E 139°50'0 0.0
2014-Sep-10 02:26N 35°38' E 139°50'0 0.0
2014-Sep-10 01:26N 35°38' E 139°50'0 0.0
2014-Sep-10 00:33N 35°38' E 139°50'4 4.4
2014-Sep-09 23:33N 35°34' E 139°52'1111.5
2014-Sep-09 22:33N 35°24' E 139°46'1111.1
2014-Sep-09 21:33N 35°13' E 139°47'1616.3
2014-Sep-09 20:34N 34°59' E 139°35'21619.1
2014-Sep-09 09:16N 33°24' E 135°41'5018.5
2014-Sep-09 06:34N 33°60' E 134°58'2423.2
2014-Sep-09 05:32N 34°24' E 134°60'1312.6
2014-Sep-09 04:31N 34°34' E 134°50'1 0.1
2014-Sep-08 17:33N 34°34' E 134°49'1413.6
2014-Sep-08 16:33N 34°36' E 135°05'1514.9
2014-Sep-08 15:33N 34°38' E 135°23'2 1.5
2014-Sep-08 14:27N 34°40' E 135°24'0 0.0
2014-Sep-08 13:27N 34°40' E 135°24'0 0.0
2014-Sep-08 12:33N 34°40' E 135°24'0 0.0
2014-Sep-08 11:33N 34°40' E 135°24'0 0.0
2014-Sep-08 10:33N 34°40' E 135°24'0 0.0
2014-Sep-08 09:27N 34°40' E 135°24'0 0.0
2014-Sep-08 08:33N 34°40' E 135°24'0 0.0
2014-Sep-08 07:33N 34°40' E 135°24'0 0.0
2014-Sep-08 06:33N 34°40' E 135°24'0 0.0
2014-Sep-08 05:21N 34°40' E 135°24'0 0.0
2014-Sep-08 04:33N 34°40' E 135°24'1413.5
2014-Sep-08 03:33N 34°30' E 135°13'1918.5
2014-Sep-08 02:33N 34°15' E 134°59'1817.8
2014-Sep-08 01:34N 33°57' E 134°59'  

Dump ship's entire track history